createdAt,value
2017-08-27T17:55:20.162Z,17.13
2017-08-27T17:57:48.449Z,16.83
2017-08-27T18:00:17.475Z,17.05
2017-08-27T18:02:45.762Z,15.97
2017-08-27T18:05:14.024Z,16.73
2017-08-27T18:07:42.282Z,18.57
2017-08-27T18:10:10.561Z,17.17
2017-08-27T18:12:38.839Z,17.87
2017-08-27T18:15:07.118Z,17.57
2017-08-27T18:17:35.426Z,17.20
2017-08-27T18:20:03.728Z,15.83
2017-08-27T18:22:31.974Z,16.20
2017-08-27T18:25:00.267Z,16.10
2017-08-27T18:27:28.526Z,15.80
2017-08-27T18:29:56.805Z,15.90
2017-08-27T18:32:25.054Z,16.03
2017-08-27T18:34:54.103Z,15.83
2017-08-27T18:37:22.354Z,16.10
2017-08-27T18:39:50.630Z,17.23
2017-08-27T18:42:18.942Z,15.50
2017-08-27T18:44:47.223Z,15.50
2017-08-27T18:47:15.505Z,17.60
2017-08-27T18:49:44.598Z,17.67
2017-08-27T18:52:12.856Z,17.63
2017-08-27T18:54:41.132Z,16.70
2017-08-27T18:57:10.167Z,16.80
2017-08-27T18:59:38.427Z,16.70
2017-08-27T19:02:06.687Z,16.30
2017-08-27T19:04:34.967Z,16.07
2017-08-27T19:07:03.230Z,15.53
2017-08-27T19:09:31.507Z,15.73
2017-08-27T19:11:59.922Z,15.27
2017-08-27T19:14:28.336Z,16.23
2017-08-27T19:16:56.575Z,14.97
2017-08-27T19:19:24.837Z,15.57
2017-08-27T19:21:53.143Z,16.30
2017-08-27T19:24:21.381Z,21.90
2017-08-27T19:26:49.652Z,16.60
2017-08-27T19:29:17.907Z,16.67
2017-08-27T19:31:46.174Z,14.63
2017-08-27T19:34:14.429Z,16.50
2017-08-27T19:36:42.722Z,15.33
2017-08-27T19:39:11.052Z,15.90
2017-08-27T19:41:39.470Z,16.73
2017-08-27T19:44:07.751Z,14.83
2017-08-27T19:46:36.023Z,15.67
2017-08-27T19:49:04.273Z,16.17
2017-08-27T19:51:32.539Z,15.60
2017-08-27T19:54:00.805Z,16.40
2017-08-27T19:56:29.844Z,14.83
2017-08-27T19:58:58.104Z,16.73
2017-08-27T20:01:26.377Z,16.33
2017-08-27T20:03:54.640Z,17.87
2017-08-27T20:06:23.688Z,15.37
2017-08-27T20:08:51.932Z,16.30
2017-08-27T20:11:20.947Z,16.10
2017-08-27T20:13:49.205Z,17.00
2017-08-27T20:16:18.239Z,16.60
2017-08-27T20:18:47.076Z,17.10
2017-08-27T20:21:15.431Z,18.87
2017-08-27T20:23:43.730Z,16.53
2017-08-27T20:26:11.983Z,16.10
2017-08-27T20:28:40.365Z,15.70
2017-08-27T20:31:08.661Z,15.40
2017-08-27T20:33:36.939Z,15.40
2017-08-27T20:36:05.189Z,14.33
2017-08-27T20:38:33.449Z,15.27
2017-08-27T20:41:01.711Z,16.17
2017-08-27T20:43:29.990Z,14.77
2017-08-27T20:45:58.252Z,16.03
2017-08-27T20:48:26.988Z,16.43
2017-08-27T20:50:56.008Z,16.00
2017-08-27T20:53:24.285Z,15.60
2017-08-27T20:55:52.556Z,18.63
2017-08-27T20:58:20.870Z,17.30
2017-08-27T21:00:49.091Z,18.30
2017-08-27T21:03:18.128Z,17.13
2017-08-27T21:05:46.406Z,18.27
2017-08-27T21:08:14.688Z,19.20
2017-08-27T21:10:42.930Z,17.60
2017-08-27T21:13:11.963Z,17.23
2017-08-27T21:15:40.217Z,16.97
2017-08-27T21:18:08.537Z,17.03
2017-08-27T21:20:36.786Z,16.50
2017-08-27T21:23:05.058Z,15.90
2017-08-27T21:25:33.313Z,15.93
2017-08-27T21:28:01.582Z,13.37
2017-08-27T21:30:29.834Z,13.37
2017-08-27T21:32:58.146Z,12.60
2017-08-27T21:35:27.090Z,12.23
2017-08-27T21:37:55.346Z,11.77
2017-08-27T21:40:23.609Z,10.50
2017-08-27T21:42:51.864Z,10.60
2017-08-27T21:45:20.162Z,10.50
2017-08-27T21:47:48.422Z,10.20
2017-08-27T21:50:16.682Z,9.20
2017-08-27T21:52:44.934Z,8.13
2017-08-27T21:55:13.187Z,9.30
2017-08-27T21:57:41.428Z,9.20
2017-08-27T22:00:09.697Z,9.10
2017-08-27T22:02:38.724Z,8.43
2017-08-27T22:05:06.992Z,8.70
2017-08-27T22:07:35.236Z,9.23
2017-08-27T22:10:03.518Z,8.97
2017-08-27T22:12:32.348Z,8.17
2017-08-27T22:15:00.630Z,9.23
2017-08-27T22:17:28.880Z,7.90
2017-08-27T22:19:57.126Z,8.47
2017-08-27T22:22:25.370Z,8.40
2017-08-27T22:24:53.626Z,8.80
2017-08-27T22:27:21.895Z,8.57
2017-08-27T22:29:50.138Z,8.53
2017-08-27T22:32:18.384Z,7.50
2017-08-27T22:34:47.405Z,8.53
2017-08-27T22:37:15.656Z,8.97
2017-08-27T22:39:43.920Z,8.37
2017-08-27T22:42:12.165Z,9.13
2017-08-27T22:44:40.429Z,9.37
2017-08-27T22:47:08.693Z,8.73
2017-08-27T22:49:36.935Z,9.70
2017-08-27T22:52:05.199Z,9.87
2017-08-27T22:54:33.447Z,9.33
2017-08-27T22:57:01.707Z,10.60
2017-08-27T22:59:29.960Z,10.20
2017-08-27T23:01:58.225Z,11.33
2017-08-27T23:04:26.467Z,8.77
2017-08-27T23:06:54.744Z,9.60
2017-08-27T23:09:22.982Z,9.87
2017-08-27T23:11:51.247Z,8.70
2017-08-27T23:14:19.494Z,9.90
2017-08-27T23:16:47.763Z,8.77
2017-08-27T23:19:16.000Z,8.97
2017-08-27T23:21:44.286Z,7.83
2017-08-27T23:24:12.526Z,8.80
2017-08-27T23:26:40.782Z,8.00
2017-08-27T23:29:09.026Z,6.90
2017-08-27T23:31:38.054Z,6.93
2017-08-27T23:34:06.336Z,7.27
2017-08-27T23:36:34.590Z,8.20
2017-08-27T23:39:02.833Z,6.73
2017-08-27T23:41:31.087Z,7.60
2017-08-27T23:43:59.323Z,6.53
2017-08-27T23:46:27.583Z,6.20
2017-08-27T23:48:55.835Z,6.43
2017-08-27T23:51:24.098Z,6.33
2017-08-27T23:53:52.359Z,6.33
2017-08-27T23:56:20.614Z,6.70
2017-08-27T23:58:48.871Z,6.47
